createdAt,value
2018-08-19T00:04:29.992Z,98417.72
2018-08-19T00:09:22.974Z,98427.20
2018-08-19T00:14:28.807Z,98415.86
2018-08-19T00:19:21.873Z,98397.16
2018-08-19T00:24:14.911Z,98400.86
2018-08-19T00:29:07.950Z,98410.34
2018-08-19T00:34:01.007Z,98404.19
2018-08-19T00:38:54.927Z,98407.31
2018-08-19T00:43:47.958Z,98414.31
2018-08-19T00:48:41.039Z,98417.75
2018-08-19T00:53:34.166Z,98408.03
2018-08-19T00:58:27.239Z,98412.09
2018-08-19T01:03:20.242Z,98418.30
2018-08-19T01:08:14.216Z,98407.54
2018-08-19T01:13:07.748Z,98397.12
2018-08-19T01:18:00.691Z,98389.32
2018-08-19T01:22:53.809Z,98392.56
2018-08-19T01:27:47.010Z,98390.97
2018-08-19T01:32:40.159Z,98396.55
2018-08-19T01:37:33.922Z,98406.31
2018-08-19T01:42:26.857Z,98402.91
2018-08-19T01:47:19.971Z,98407.49
2018-08-19T01:52:13.005Z,98391.30
2018-08-19T01:57:06.024Z,98393.36
2018-08-19T02:02:02.128Z,98390.86
2018-08-19T02:06:55.180Z,98392.44
2018-08-19T02:11:51.911Z,98395.02
2018-08-19T02:16:45.051Z,98390.39
2018-08-19T02:21:38.351Z,98387.97
2018-08-19T02:26:31.354Z,98389.47
2018-08-19T02:31:24.369Z,98388.59
2018-08-19T02:36:17.318Z,98388.33
2018-08-19T02:41:10.578Z,98390.35
2018-08-19T02:46:03.669Z,98393.77
2018-08-19T02:50:56.668Z,98393.05
2018-08-19T02:55:49.617Z,98399.46
2018-08-19T03:00:42.610Z,98400.25
2018-08-19T03:05:37.121Z,98395.42
2018-08-19T03:10:30.627Z,98399.30
2018-08-19T03:15:23.761Z,98395.89
2018-08-19T03:20:16.845Z,98396.70
2018-08-19T03:25:10.563Z,98407.20
2018-08-19T03:30:05.605Z,98410.62
2018-08-19T03:35:04.777Z,98415.63
2018-08-19T03:39:57.802Z,98410.66
2018-08-19T03:44:50.787Z,98407.09
2018-08-19T03:49:43.704Z,98419.54
2018-08-19T03:54:36.755Z,98425.83
2018-08-19T03:59:29.746Z,98418.68
2018-08-19T04:04:22.793Z,98426.73
2018-08-19T04:09:15.760Z,98427.67
2018-08-19T04:14:28.419Z,98435.27
2018-08-19T04:19:23.919Z,98440.60
2018-08-19T04:24:16.930Z,98435.38
2018-08-19T04:29:14.992Z,98430.84
2018-08-19T04:34:08.433Z,98432.34
2018-08-19T04:39:01.470Z,98430.33
2018-08-19T04:43:54.535Z,98432.74
2018-08-19T04:48:48.095Z,98430.92
2018-08-19T04:53:41.291Z,98426.28
2018-08-19T04:58:34.541Z,98427.56
2018-08-19T05:03:27.502Z,98428.66
2018-08-19T05:08:20.762Z,98418.91
2018-08-19T05:13:14.965Z,98418.77
2018-08-19T05:18:08.628Z,98433.26
2018-08-19T05:23:01.685Z,98441.05
2018-08-19T05:28:03.103Z,98433.70
2018-08-19T05:33:03.175Z,98440.30
2018-08-19T05:37:57.157Z,98445.61
2018-08-19T05:42:50.192Z,98461.19
2018-08-19T05:47:43.513Z,98455.81
2018-08-19T05:52:36.711Z,98452.25
2018-08-19T05:57:30.876Z,98452.18
2018-08-19T06:02:31.285Z,98453.22
2018-08-19T06:07:26.446Z,98449.61
2018-08-19T06:12:19.575Z,98447.75
2018-08-19T06:17:12.704Z,98449.33
2018-08-19T06:22:06.806Z,98452.30
2018-08-19T06:26:59.674Z,98447.38
2018-08-19T06:31:52.864Z,98446.50
2018-08-19T06:36:45.972Z,98449.09
2018-08-19T06:41:39.084Z,98448.57
2018-08-19T06:46:32.136Z,98453.42
2018-08-19T06:51:25.190Z,98451.80
2018-08-19T06:56:18.330Z,98445.22
2018-08-19T07:01:11.525Z,98450.23
2018-08-19T07:06:13.183Z,98449.42
2018-08-19T07:11:06.339Z,98441.44
2018-08-19T07:16:02.832Z,98433.39
2018-08-19T07:20:58.404Z,98442.08
2018-08-19T07:25:53.950Z,98446.67
2018-08-19T07:30:48.599Z,98451.80
2018-08-19T07:35:41.647Z,98460.84
2018-08-19T07:40:34.662Z,98462.88
2018-08-19T07:45:27.901Z,98447.50
2018-08-19T07:50:20.863Z,98453.30
2018-08-19T07:55:14.119Z,98452.90
2018-08-19T08:00:07.200Z,98446.47
2018-08-19T08:05:01.116Z,98442.22
2018-08-19T08:09:54.730Z,98441.25
2018-08-19T08:14:51.727Z,98440.67
2018-08-19T08:19:50.484Z,98443.94
2018-08-19T08:24:43.772Z,98442.39
2018-08-19T08:29:36.786Z,98440.52
2018-08-19T08:34:29.832Z,98442.79
2018-08-19T08:39:22.904Z,98435.99
2018-08-19T08:44:15.881Z,98430.83
2018-08-19T08:49:09.010Z,98425.36
2018-08-19T08:54:02.031Z,98434.45
2018-08-19T08:58:55.146Z,98433.57
2018-08-19T09:03:48.203Z,98431.30
2018-08-19T09:08:41.303Z,98429.73
2018-08-19T09:13:34.195Z,98421.38
2018-08-19T09:18:27.072Z,98426.97
2018-08-19T09:23:20.329Z,98423.04
2018-08-19T09:28:13.136Z,98419.59
2018-08-19T09:33:06.251Z,98413.50
2018-08-19T09:38:04.827Z,98414.92
2018-08-19T09:42:58.012Z,98419.18
2018-08-19T09:47:51.319Z,98420.49
2018-08-19T09:52:44.563Z,98434.26
2018-08-19T09:57:41.960Z,98423.02
2018-08-19T10:02:39.362Z,98407.84
2018-08-19T10:07:32.359Z,98417.17
2018-08-19T10:12:25.371Z,98401.47
2018-08-19T10:17:18.364Z,98407.23
2018-08-19T10:22:11.467Z,98428.58
2018-08-19T10:27:07.505Z,98417.34
2018-08-19T10:32:01.813Z,98425.06
2018-08-19T10:36:55.499Z,98400.58
2018-08-19T10:41:48.606Z,98405.47
2018-08-19T10:46:42.690Z,98403.14
2018-08-19T10:51:39.723Z,98412.06
2018-08-19T10:56:32.707Z,98392.91
2018-08-19T11:01:25.738Z,98394.46
2018-08-19T11:06:18.918Z,98386.08
2018-08-19T11:11:12.023Z,98396.23
2018-08-19T11:16:05.168Z,98393.09
2018-08-19T11:21:01.256Z,98390.70
2018-08-19T11:25:55.213Z,98385.20
2018-08-19T11:30:48.220Z,98375.38
2018-08-19T11:35:46.000Z,98384.45
2018-08-19T11:40:39.763Z,98362.73
2018-08-19T11:45:32.819Z,98358.67
2018-08-19T11:50:26.147Z,98364.80
2018-08-19T11:55:19.436Z,98366.28
2018-08-19T12:00:12.461Z,98344.92
2018-08-19T12:05:05.469Z,98336.25
2018-08-19T12:09:59.949Z,98348.34
2018-08-19T12:14:52.931Z,98339.37
2018-08-19T12:19:45.973Z,98337.66
2018-08-19T12:24:44.281Z,98343.52
2018-08-19T12:29:38.359Z,98336.05
2018-08-19T12:34:31.756Z,98338.73
2018-08-19T12:39:24.726Z,98326.11
2018-08-19T12:44:17.635Z,98332.00
2018-08-19T12:49:10.758Z,98320.84
2018-08-19T12:54:04.336Z,98324.28
2018-08-19T12:58:57.296Z,98334.89
2018-08-19T13:03:50.246Z,98322.59
2018-08-19T13:08:44.262Z,98313.80
2018-08-19T13:13:37.601Z,98316.77
2018-08-19T13:18:36.242Z,98307.77
2018-08-19T13:23:32.099Z,98297.39
2018-08-19T13:28:25.301Z,98313.08
2018-08-19T13:33:19.054Z,98304.80
2018-08-19T13:38:17.173Z,98303.95
2018-08-19T13:43:10.181Z,98289.78
2018-08-19T13:48:03.211Z,98293.54
2018-08-19T13:52:56.171Z,98293.25
2018-08-19T13:57:49.260Z,98281.50
2018-08-19T14:02:42.305Z,98278.43
2018-08-19T14:07:35.300Z,98314.93
2018-08-19T14:12:28.360Z,98270.41
2018-08-19T14:17:21.310Z,98286.75
2018-08-19T14:22:14.326Z,98274.33
2018-08-19T14:27:07.334Z,98293.39
2018-08-19T14:32:00.279Z,98294.40
2018-08-19T14:36:53.330Z,98307.18
2018-08-19T14:41:46.294Z,98329.41
2018-08-19T14:46:39.423Z,98353.02
2018-08-19T14:51:55.830Z,98351.42
2018-08-19T14:56:49.435Z,98350.91
2018-08-19T15:01:42.687Z,98353.23
2018-08-19T15:06:35.627Z,98349.55
2018-08-19T15:11:28.699Z,98346.35
2018-08-19T15:16:21.791Z,98337.26
2018-08-19T15:21:14.714Z,98330.77
2018-08-19T15:26:07.766Z,98322.59
2018-08-19T15:31:01.150Z,98315.25
2018-08-19T15:40:55.931Z,98313.62
2018-08-19T15:45:48.903Z,98320.52
2018-08-19T15:50:41.857Z,98324.20
2018-08-19T15:55:35.081Z,98331.77
2018-08-19T16:00:28.305Z,98354.63
2018-08-19T16:05:21.350Z,98364.19
2018-08-19T16:10:16.114Z,98369.84
2018-08-19T16:15:13.515Z,98344.81
2018-08-19T16:20:06.793Z,98349.46
2018-08-19T16:24:59.907Z,98348.48
2018-08-19T16:29:53.513Z,98353.16
2018-08-19T16:34:46.735Z,98349.10
2018-08-19T16:39:40.814Z,98352.31
2018-08-19T16:44:33.834Z,98348.89
2018-08-19T16:49:26.958Z,98351.26
2018-08-19T16:54:20.154Z,98349.41
2018-08-19T16:59:13.071Z,98356.58
2018-08-19T17:04:06.250Z,98362.42
2018-08-19T17:08:59.218Z,98359.00
2018-08-19T17:13:52.246Z,98357.23
2018-08-19T17:18:45.275Z,98360.86
2018-08-19T17:23:38.315Z,98358.95
2018-08-19T17:28:31.416Z,98362.30
2018-08-19T17:33:29.058Z,98364.02
2018-08-19T17:38:22.172Z,98368.11
2018-08-19T17:43:15.203Z,98371.95
2018-08-19T17:48:08.415Z,98377.87
2018-08-19T17:53:02.415Z,98386.97
2018-08-19T17:57:56.988Z,98402.13
2018-08-19T18:02:50.984Z,98390.71
2018-08-19T18:07:50.102Z,98391.53
2018-08-19T18:12:43.021Z,98392.07
2018-08-19T18:17:36.527Z,98396.99
2018-08-19T18:22:29.517Z,98391.11
2018-08-19T18:27:22.722Z,98402.45
2018-08-19T18:32:15.784Z,98405.82
2018-08-19T18:37:08.786Z,98412.46
2018-08-19T18:42:01.819Z,98402.13
2018-08-19T18:46:54.771Z,98403.91
2018-08-19T18:51:49.374Z,98410.77
2018-08-19T18:56:42.698Z,98403.89
2018-08-19T19:01:35.701Z,98412.89
2018-08-19T19:06:28.638Z,98411.28
2018-08-19T19:11:23.060Z,98411.50
2018-08-19T19:16:19.353Z,98417.44
2018-08-19T19:21:13.034Z,98417.00
2018-08-19T19:26:06.858Z,98422.77
2018-08-19T19:31:05.353Z,98419.91
2018-08-19T19:36:08.840Z,98409.72
2018-08-19T19:41:05.971Z,98405.43
2018-08-19T19:45:59.577Z,98412.39
2018-08-19T19:50:52.606Z,98400.50
2018-08-19T19:55:45.669Z,98403.97
2018-08-19T20:00:54.350Z,98393.12
2018-08-19T20:05:48.837Z,98396.42
2018-08-19T20:10:41.903Z,98387.78
2018-08-19T20:15:34.920Z,98386.48
2018-08-19T20:20:30.530Z,98390.48
2018-08-19T20:25:23.599Z,98393.80
2018-08-19T20:30:16.715Z,98390.91
2018-08-19T20:35:10.527Z,98385.91
2018-08-19T20:40:03.870Z,98400.94
2018-08-19T20:44:59.526Z,98402.04
2018-08-19T20:49:52.680Z,98406.98
2018-08-19T20:54:45.681Z,98408.45
2018-08-19T20:59:38.877Z,98414.84
2018-08-19T21:04:32.108Z,98412.07
2018-08-19T21:09:25.264Z,98409.92
2018-08-19T21:14:18.501Z,98414.48
2018-08-19T21:19:11.647Z,98418.15
2018-08-19T21:24:04.655Z,98414.02
2018-08-19T21:29:03.232Z,98416.81
2018-08-19T21:33:56.262Z,98419.91
2018-08-19T21:38:49.540Z,98418.28
2018-08-19T21:43:42.551Z,98407.31
2018-08-19T21:48:38.598Z,98414.41
2018-08-19T21:53:32.719Z,98408.75
2018-08-19T21:58:26.216Z,98400.13
2018-08-19T22:03:24.800Z,98393.49
2018-08-19T22:08:19.852Z,98392.80
2018-08-19T22:13:14.235Z,98391.36
2018-08-19T22:18:09.169Z,98386.27
2018-08-19T22:23:02.345Z,98371.86
2018-08-19T22:27:55.244Z,98377.73
2018-08-19T22:32:49.170Z,98368.20
2018-08-19T22:37:42.330Z,98364.83
2018-08-19T22:42:35.222Z,98360.77
2018-08-19T22:47:28.162Z,98362.13
2018-08-19T22:52:22.562Z,98368.55
2018-08-19T22:57:15.558Z,98376.88
2018-08-19T23:02:08.716Z,98377.25
2018-08-19T23:07:01.731Z,98372.35
2018-08-19T23:11:54.952Z,98373.75
2018-08-19T23:16:47.987Z,98367.48
2018-08-19T23:21:41.068Z,98361.52
2018-08-19T23:26:33.981Z,98350.93
2018-08-19T23:31:27.087Z,98351.22
2018-08-19T23:36:20.151Z,98352.73
2018-08-19T23:41:13.162Z,98332.38
2018-08-19T23:46:06.553Z,98340.44
2018-08-19T23:50:59.594Z,98341.05
2018-08-19T23:55:52.596Z,98349.69
